Time;durP1;ratioP1;P1;durP2;ratioP2;P2;SDS_P1;SDS_P2;PMS_P1;PMS_P2;Temp;Humidity;BMP_temperature;BMP_pressure;BME280_temperature;BME280_humidity;BME280_pressure;Samples;Min_cycle;Max_cycle;Signal;HPM_P1;HPM_P2
2021/08/15 00:02:25;;;;;;;7.20;3.80;;;18.40;1.00;;;;;;5006473;28;20585;-48
2021/08/15 00:04:52;;;;;;;8.37;3.90;;;18.40;1.00;;;;;;5006360;28;20292;-48
2021/08/15 00:07:19;;;;;;;7.53;4.13;;;18.30;1.00;;;;;;5006906;28;20606;-48
2021/08/15 00:09:46;;;;;;;7.47;4.00;;;18.30;1.00;;;;;;5006646;28;20220;-48
2021/08/15 00:12:12;;;;;;;7.73;4.20;;;18.30;1.00;;;;;;5007379;28;20201;-49
2021/08/15 00:14:39;;;;;;;5.03;3.17;;;18.30;1.00;;;;;;5007182;28;20687;-49
2021/08/15 00:17:06;;;;;;;5.97;2.97;;;18.30;1.00;;;;;;5007042;28;20208;-48
2021/08/15 00:19:33;;;;;;;5.47;3.47;;;18.40;1.00;;;;;;5006474;28;20209;-48
2021/08/15 00:22:01;;;;;;;6.97;4.20;;;18.30;1.00;;;;;;5006724;28;20872;-49
2021/08/15 00:24:28;;;;;;;7.03;3.87;;;18.30;1.00;;;;;;5006039;28;20564;-48
2021/08/15 00:26:55;;;;;;;10.30;3.93;;;18.30;25.60;;;;;;5007222;28;20249;-48
2021/08/15 00:29:22;;;;;;;10.23;5.30;;;18.30;99.90;;;;;;5006609;28;20308;-48
2021/08/15 00:31:49;;;;;;;6.43;3.87;;;18.20;99.90;;;;;;5006615;28;20729;-49
2021/08/15 00:34:15;;;;;;;7.10;3.73;;;18.20;99.90;;;;;;5006432;28;20251;-49
2021/08/15 00:36:42;;;;;;;6.10;3.60;;;18.20;99.90;;;;;;5006470;28;20272;-49
2021/08/15 00:39:09;;;;;;;6.47;4.00;;;18.20;99.90;;;;;;5006249;28;20293;-49
2021/08/15 00:41:36;;;;;;;8.17;3.83;;;18.20;99.90;;;;;;5006633;28;21040;-48
2021/08/15 00:44:03;;;;;;;8.77;3.93;;;18.30;99.90;;;;;;5005543;28;20256;-49
2021/08/15 00:46:30;;;;;;;7.00;3.87;;;18.30;99.90;;;;;;5006285;28;20302;-49
2021/08/15 00:48:57;;;;;;;6.43;3.70;;;18.20;99.90;;;;;;5006044;28;20280;-49
2021/08/15 00:51:24;;;;;;;7.50;3.90;;;18.10;99.90;;;;;;5006243;28;20621;-48
2021/08/15 00:53:51;;;;;;;8.47;4.23;;;18.00;99.90;;;;;;5006309;28;20289;-49
2021/08/15 00:56:18;;;;;;;7.47;4.10;;;17.80;99.90;;;;;;5006611;28;20237;-48
2021/08/15 00:58:44;;;;;;;7.83;4.53;;;18.00;99.90;;;;;;5007021;28;20717;-49
2021/08/15 01:01:11;;;;;;;7.03;3.97;;;18.00;99.90;;;;;;5006703;28;20298;-49
2021/08/15 01:03:39;;;;;;;5.90;3.87;;;18.10;99.90;;;;;;5006855;28;20889;-48
2021/08/15 01:06:08;;;;;;;6.17;3.77;;;18.00;99.90;;;;;;5005888;28;20244;-49
2021/08/15 01:08:38;;;;;;;7.43;3.83;;;17.90;99.90;;;;;;5006651;28;20669;-48
2021/08/15 01:11:10;;;;;;;5.10;3.60;;;18.00;99.90;;;;;;5006399;28;20580;-49
2021/08/15 01:13:40;;;;;;;6.77;3.93;;;18.00;99.90;;;;;;5006291;28;20197;-48
2021/08/15 01:16:08;;;;;;;6.13;3.67;;;18.10;99.90;;;;;;5005552;28;20201;-49
2021/08/15 01:18:38;;;;;;;6.80;3.30;;;18.20;99.90;;;;;;5006182;28;20576;-49
2021/08/15 01:21:06;;;;;;;6.77;4.20;;;18.20;99.90;;;;;;5005942;28;20238;-49
2021/08/15 01:23:36;;;;;;;8.17;3.60;;;18.10;99.90;;;;;;5006755;28;20206;-48
2021/08/15 01:26:08;;;;;;;11.30;3.80;;;18.20;1.00;;;;;;5006765;28;20211;-48
2021/08/15 01:28:35;;;;;;;6.57;3.37;;;18.20;1.00;;;;;;5008875;28;20209;-49
2021/08/15 01:31:01;;;;;;;5.97;3.87;;;18.30;1.00;;;;;;5009775;28;20549;-48
2021/08/15 01:33:36;;;;;;;6.33;3.77;;;18.20;1.00;;;;;;5009897;28;20631;-48
2021/08/15 01:36:04;;;;;;;6.90;4.00;;;18.00;1.00;;;;;;5009567;28;20360;-48
2021/08/15 01:38:34;;;;;;;7.87;3.37;;;17.90;51.50;;;;;;5008431;28;20234;-49
2021/08/15 01:41:01;;;;;;;8.17;3.90;;;17.70;99.90;;;;;;5009550;28;20742;-48
2021/08/15 01:43:29;;;;;;;4.90;3.57;;;17.70;37.00;;;;;;5009071;28;20265;-48
2021/08/15 01:45:55;;;;;;;5.43;3.47;;;17.60;63.00;;;;;;5009187;28;20249;-48
2021/08/15 01:48:22;;;;;;;5.37;3.60;;;17.70;99.90;;;;;;5009533;28;20556;-48
2021/08/15 01:50:49;;;;;;;8.17;4.20;;;17.60;99.90;;;;;;5009208;28;20743;-48
2021/08/15 01:53:20;;;;;;;7.93;4.20;;;17.70;1.00;;;;;;5009188;28;20301;-48
2021/08/15 01:55:48;;;;;;;9.03;4.73;;;17.70;1.00;;;;;;5009370;28;20287;-48
2021/08/15 01:58:15;;;;;;;6.33;3.80;;;17.80;1.00;;;;;;5009218;28;20258;-48
2021/08/15 02:00:44;;;;;;;7.07;4.47;;;17.70;1.00;;;;;;5009270;28;20296;-48
2021/08/15 02:03:11;;;;;;;6.60;3.97;;;17.70;1.00;;;;;;5009741;28;20300;-48
2021/08/15 02:05:39;;;;;;;7.37;4.17;;;17.80;1.00;;;;;;5008613;28;20219;-48
2021/08/15 02:08:06;;;;;;;7.27;4.37;;;17.80;1.00;;;;;;5008878;28;20291;-49
2021/08/15 02:10:34;;;;;;;7.47;4.80;;;17.80;1.00;;;;;;5008132;28;20311;-48
2021/08/15 02:13:02;;;;;;;10.50;6.00;;;17.80;1.00;;;;;;5008442;28;20363;-48
2021/08/15 02:15:31;;;;;;;8.33;5.10;;;17.70;1.00;;;;;;5008966;28;20340;-49
2021/08/15 02:18:00;;;;;;;9.30;5.33;;;17.50;63.80;;;;;;5008825;28;20276;-49
2021/08/15 02:20:32;;;;;;;8.70;5.50;;;17.40;59.50;;;;;;5008283;28;20198;-49
2021/08/15 02:22:59;;;;;;;6.90;4.83;;;17.30;99.90;;;;;;5008486;28;20817;-49
2021/08/15 02:25:27;;;;;;;10.30;5.23;;;17.50;58.40;;;;;;5008709;28;20245;-48
2021/08/15 02:27:54;;;;;;;10.93;4.93;;;17.50;88.10;;;;;;5008702;28;20249;-48
2021/08/15 02:30:24;;;;;;;9.90;5.10;;;17.50;7.90;;;;;;5008507;28;20216;-48
2021/08/15 02:32:52;;;;;;;11.00;5.87;;;17.40;99.90;;;;;;5008823;28;20232;-48
2021/08/15 02:35:19;;;;;;;8.93;6.33;;;17.20;99.90;;;;;;5008108;28;20582;-48
2021/08/15 02:37:48;;;;;;;10.97;5.93;;;17.20;99.90;;;;;;5008933;28;20244;-48
2021/08/15 02:40:17;;;;;;;11.97;6.30;;;17.20;99.90;;;;;;5008549;28;20241;-48
2021/08/15 02:42:45;;;;;;;9.30;6.47;;;17.30;99.90;;;;;;5008491;28;20255;-48
2021/08/15 02:45:15;;;;;;;9.07;6.53;;;17.30;99.90;;;;;;5007889;28;20272;-48
2021/08/15 02:47:42;;;;;;;7.10;5.50;;;17.10;99.90;;;;;;5008710;28;20669;-48
2021/08/15 02:50:10;;;;;;;9.70;6.13;;;17.10;99.90;;;;;;5007559;28;20688;-48
2021/08/15 02:52:38;;;;;;;12.00;6.43;;;17.10;99.90;;;;;;5008507;28;20292;-48
2021/08/15 02:55:05;;;;;;;9.57;7.20;;;17.00;99.90;;;;;;5008300;28;20245;-48
2021/08/15 02:57:32;;;;;;;8.77;6.77;;;17.00;99.90;;;;;;5006890;28;20257;-48
2021/08/15 03:00:00;;;;;;;8.67;6.00;;;17.00;99.90;;;;;;5008509;28;20213;-49
2021/08/15 03:02:27;;;;;;;12.23;7.43;;;17.00;99.90;;;;;;5008279;28;20256;-49
2021/08/15 03:04:54;;;;;;;9.87;6.07;;;17.10;99.90;;;;;;5007510;28;20413;-49
2021/08/15 03:07:21;;;;;;;7.10;5.50;;;17.00;99.90;;;;;;5007740;28;20245;-48
2021/08/15 03:09:48;;;;;;;11.10;6.20;;;17.20;99.90;;;;;;5008263;28;20319;-48
2021/08/15 03:12:15;;;;;;;7.47;6.20;;;17.20;99.90;;;;;;5008103;28;20203;-48
2021/08/15 03:14:42;;;;;;;10.17;6.03;;;17.20;99.90;;;;;;5007710;28;20243;-48
2021/08/15 03:17:09;;;;;;;10.83;6.53;;;17.30;99.90;;;;;;5008078;28;20653;-48
2021/08/15 03:19:36;;;;;;;8.37;6.50;;;17.20;99.90;;;;;;5007288;28;20312;-49
2021/08/15 03:22:05;;;;;;;9.67;7.03;;;17.20;99.90;;;;;;5007617;28;20316;-49
2021/08/15 03:24:32;;;;;;;11.60;6.67;;;17.30;99.90;;;;;;5007320;28;20237;-49
2021/08/15 03:26:59;;;;;;;10.40;7.00;;;17.30;99.90;;;;;;5008319;28;20732;-48
2021/08/15 03:29:26;;;;;;;14.70;7.10;;;17.30;99.90;;;;;;5007631;28;20300;-48
2021/08/15 03:31:53;;;;;;;9.50;7.10;;;17.30;99.90;;;;;;5007659;28;20316;-49
2021/08/15 03:34:20;;;;;;;10.47;7.43;;;17.30;99.90;;;;;;5007246;28;20747;-49
2021/08/15 03:36:48;;;;;;;10.77;7.20;;;17.40;99.90;;;;;;5007286;28;20260;-49
2021/08/15 03:39:16;;;;;;;15.17;8.63;;;17.30;99.90;;;;;;5007517;28;20267;-48
2021/08/15 03:41:43;;;;;;;12.17;7.63;;;17.20;99.90;;;;;;5007366;28;20251;-48
2021/08/15 03:44:10;;;;;;;11.07;7.50;;;17.10;99.90;;;;;;5006945;28;20304;-49
2021/08/15 03:46:37;;;;;;;13.37;8.07;;;16.90;99.90;;;;;;5007791;28;20730;-48
2021/08/15 03:49:04;;;;;;;12.87;8.23;;;16.90;99.90;;;;;;5006997;28;20247;-49
2021/08/15 03:51:30;;;;;;;12.13;7.87;;;16.70;99.90;;;;;;5006187;28;20291;-48
2021/08/15 03:53:57;;;;;;;12.00;8.27;;;16.90;99.90;;;;;;5007123;28;20297;-48
2021/08/15 03:56:24;;;;;;;14.00;8.13;;;16.90;99.90;;;;;;5007937;28;20208;-48
2021/08/15 03:58:51;;;;;;;13.93;8.43;;;17.10;99.90;;;;;;5007056;28;20281;-48
2021/08/15 04:01:18;;;;;;;13.27;7.97;;;17.00;99.90;;;;;;5007481;28;20247;-48
2021/08/15 04:03:45;;;;;;;11.70;8.57;;;17.00;99.90;;;;;;5006631;28;20282;-48
2021/08/15 04:06:20;;;;;;;17.93;9.30;;;17.00;99.90;;;;;;5006889;28;20209;-48
2021/08/15 04:08:48;;;;;;;11.47;7.37;;;17.00;99.90;;;;;;5006589;28;20628;-48
2021/08/15 04:11:15;;;;;;;12.50;7.97;;;17.00;99.90;;;;;;5006750;28;20224;-48
2021/08/15 04:13:42;;;;;;;13.40;9.00;;;17.00;99.90;;;;;;5006941;28;20235;-48
2021/08/15 04:16:09;;;;;;;12.63;8.53;;;17.00;99.90;;;;;;5006780;28;20201;-49
2021/08/15 04:18:36;;;;;;;13.70;8.33;;;17.10;99.90;;;;;;5006747;28;20630;-49
2021/08/15 04:21:03;;;;;;;14.83;8.60;;;17.00;99.90;;;;;;5006343;28;20648;-49
2021/08/15 04:23:31;;;;;;;16.30;9.17;;;17.00;99.90;;;;;;5006548;28;20313;-48
2021/08/15 04:25:58;;;;;;;12.27;8.23;;;17.10;99.90;;;;;;5007068;28;20648;-50
2021/08/15 04:28:25;;;;;;;16.33;8.50;;;17.20;99.90;;;;;;5006803;28;20645;-49
2021/08/15 04:30:53;;;;;;;11.53;8.60;;;17.20;99.90;;;;;;5006839;28;20304;-49
2021/08/15 04:33:24;;;;;;;16.23;9.83;;;17.00;99.90;;;;;;5006533;28;20205;-48
2021/08/15 04:35:54;;;;;;;14.60;8.53;;;16.90;99.90;;;;;;5006073;28;20212;-48
2021/08/15 04:38:21;;;;;;;14.83;10.10;;;16.80;99.90;;;;;;5006786;28;20238;-48
2021/08/15 04:40:50;;;;;;;13.23;9.20;;;16.70;99.90;;;;;;5006269;28;20803;-49
2021/08/15 04:43:18;;;;;;;12.17;8.83;;;16.80;99.90;;;;;;5006064;28;20210;-48
2021/08/15 04:45:48;;;;;;;15.03;9.27;;;16.90;99.90;;;;;;5005844;28;20319;-48
2021/08/15 04:48:16;;;;;;;15.33;9.17;;;17.10;99.90;;;;;;5006156;28;20262;-48
2021/08/15 04:50:43;;;;;;;14.77;9.83;;;17.10;99.90;;;;;;5005912;28;20389;-48
2021/08/15 04:53:10;;;;;;;16.60;9.70;;;17.10;99.90;;;;;;5006439;28;20321;-49
2021/08/15 04:55:38;;;;;;;17.37;10.10;;;17.20;99.90;;;;;;5006741;28;20243;-48
2021/08/15 04:58:05;;;;;;;13.07;9.47;;;17.00;99.90;;;;;;5006373;28;20248;-48
2021/08/15 05:00:33;;;;;;;15.80;9.53;;;17.00;99.90;;;;;;5006144;28;20644;-48
2021/08/15 05:03:00;;;;;;;13.27;9.70;;;17.00;99.90;;;;;;5009954;28;20212;-48
2021/08/15 05:05:27;;;;;;;13.70;9.70;;;17.00;99.90;;;;;;5009979;28;20226;-48
2021/08/15 05:07:53;;;;;;;16.13;10.13;;;17.00;99.90;;;;;;5010450;28;20329;-49
2021/08/15 05:10:21;;;;;;;17.27;10.30;;;17.00;99.90;;;;;;5010110;28;20228;-48
2021/08/15 05:12:48;;;;;;;13.30;10.13;;;17.00;99.90;;;;;;5010301;28;20289;-48
2021/08/15 05:15:15;;;;;;;15.93;11.10;;;17.00;99.90;;;;;;5010234;28;20201;-48
2021/08/15 05:17:42;;;;;;;21.70;11.73;;;16.90;99.90;;;;;;5009963;28;20622;-49
2021/08/15 05:20:09;;;;;;;20.73;11.70;;;16.90;99.90;;;;;;5009452;28;20295;-48
2021/08/15 05:22:36;;;;;;;22.50;11.70;;;17.00;99.90;;;;;;5009934;28;20298;-48
2021/08/15 05:25:03;;;;;;;19.80;11.37;;;17.00;99.90;;;;;;5009824;28;20298;-49
2021/08/15 05:27:30;;;;;;;19.67;13.47;;;17.00;99.90;;;;;;5009402;28;20255;-48
2021/08/15 05:29:57;;;;;;;19.60;11.73;;;16.90;99.90;;;;;;5009586;28;20314;-49
2021/08/15 05:32:24;;;;;;;16.57;11.87;;;16.90;99.90;;;;;;5010017;28;20257;-48
2021/08/15 05:34:51;;;;;;;18.77;10.87;;;17.00;99.90;;;;;;5009866;28;20325;-48
2021/08/15 05:37:18;;;;;;;14.70;10.50;;;17.00;99.90;;;;;;5009663;28;20264;-48
2021/08/15 05:39:45;;;;;;;14.17;11.07;;;17.10;99.90;;;;;;5009513;28;20254;-49
2021/08/15 05:42:11;;;;;;;16.77;10.47;;;17.00;99.90;;;;;;5009894;28;20708;-48
2021/08/15 05:44:38;;;;;;;19.87;11.23;;;17.00;99.90;;;;;;5009110;28;20340;-48
2021/08/15 05:47:07;;;;;;;16.17;10.47;;;17.00;99.90;;;;;;5010022;28;20670;-48
2021/08/15 05:49:35;;;;;;;14.70;10.10;;;17.00;99.90;;;;;;5009102;28;20240;-48
2021/08/15 05:52:02;;;;;;;15.63;9.93;;;17.10;99.90;;;;;;5009936;28;20338;-48
2021/08/15 05:54:28;;;;;;;16.83;10.80;;;17.10;99.90;;;;;;5009395;28;20653;-49
2021/08/15 05:56:55;;;;;;;15.27;11.07;;;17.10;99.90;;;;;;5009558;28;20241;-49
2021/08/15 05:59:22;;;;;;;14.13;9.43;;;17.20;99.90;;;;;;5009796;28;20273;-48
2021/08/15 06:01:50;;;;;;;14.30;9.97;;;17.30;99.90;;;;;;5005579;28;20741;-49
2021/08/15 06:04:17;;;;;;;15.30;9.20;;;17.50;99.90;;;;;;5008406;28;20205;-49
2021/08/15 06:06:44;;;;;;;13.73;9.63;;;17.60;99.90;;;;;;5015672;28;20690;-49
2021/08/15 06:09:11;;;;;;;16.30;8.67;;;17.50;99.90;;;;;;5009010;28;20213;-49
2021/08/15 06:11:37;;;;;;;18.23;9.97;;;17.50;99.90;;;;;;5009464;28;20236;-49
2021/08/15 06:14:04;;;;;;;18.07;9.27;;;17.60;99.90;;;;;;5009031;28;20229;-49
2021/08/15 06:16:31;;;;;;;13.50;9.30;;;17.70;99.90;;;;;;5009353;28;20296;-49
2021/08/15 06:18:58;;;;;;;13.07;9.70;;;17.60;99.90;;;;;;5006857;28;20239;-49
2021/08/15 06:21:25;;;;;;;15.17;10.03;;;17.70;99.90;;;;;;5008611;28;20284;-48
2021/08/15 06:23:51;;;;;;;18.97;9.97;;;17.90;99.90;;;;;;5008765;28;20287;-48
2021/08/15 06:26:19;;;;;;;11.73;9.23;;;17.90;99.90;;;;;;5009281;28;20267;-49
2021/08/15 06:28:46;;;;;;;15.60;9.03;;;18.00;99.90;;;;;;5008166;28;20262;-49
2021/08/15 06:31:20;;;;;;;19.00;9.53;;;18.10;99.90;;;;;;5009186;28;20236;-48
2021/08/15 06:33:47;;;;;;;13.60;9.40;;;18.10;99.90;;;;;;5008374;28;20206;-49
2021/08/15 06:36:14;;;;;;;15.20;9.20;;;18.10;99.90;;;;;;5008896;28;20294;-48
2021/08/15 06:38:41;;;;;;;15.63;10.00;;;18.10;99.90;;;;;;5007170;28;20244;-49
2021/08/15 06:41:09;;;;;;;13.80;9.60;;;18.20;99.90;;;;;;5008011;28;20317;-49
2021/08/15 06:43:36;;;;;;;14.73;9.57;;;18.20;99.90;;;;;;5008063;28;20747;-49
2021/08/15 06:46:03;;;;;;;15.90;10.47;;;18.20;99.90;;;;;;5008081;28;20643;-49
2021/08/15 06:48:30;;;;;;;16.03;9.33;;;18.10;99.90;;;;;;5008625;28;20288;-49
2021/08/15 06:51:00;;;;;;;17.07;9.67;;;18.30;99.90;;;;;;5007814;28;20253;-49
2021/08/15 06:53:28;;;;;;;12.83;9.13;;;18.40;99.90;;;;;;5008375;28;20764;-49
2021/08/15 06:55:58;;;;;;;13.17;8.97;;;18.60;99.90;;;;;;5007908;28;20243;-49
2021/08/15 06:58:26;;;;;;;14.40;9.70;;;18.70;99.90;;;;;;5008697;28;20224;-48
2021/08/15 07:00:53;;;;;;;13.07;8.80;;;18.60;99.90;;;;;;5007720;28;20296;-49
2021/08/15 07:03:20;;;;;;;12.13;8.77;;;18.70;99.90;;;;;;5008170;28;20244;-49
2021/08/15 07:05:48;;;;;;;21.93;9.83;;;18.90;99.90;;;;;;5007903;28;20215;-49
2021/08/15 07:08:16;;;;;;;15.37;8.60;;;19.00;99.90;;;;;;5008242;28;20321;-49
2021/08/15 07:10:43;;;;;;;12.27;9.03;;;19.20;99.90;;;;;;4990452;28;20312;-49
2021/08/15 07:13:10;;;;;;;13.53;8.40;;;19.20;99.90;;;;;;5007955;28;20252;-49
2021/08/15 07:15:37;;;;;;;15.70;9.30;;;18.90;92.40;;;;;;5007514;28;20253;-49
2021/08/15 07:18:04;;;;;;;10.73;7.93;;;19.10;99.90;;;;;;5007738;28;20230;-49
2021/08/15 07:20:31;;;;;;;13.00;8.30;;;19.40;55.80;;;;;;5007260;28;20279;-49
2021/08/15 07:22:58;;;;;;;12.83;8.03;;;19.70;1.00;;;;;;5008077;28;20685;-49
2021/08/15 07:25:28;;;;;;;14.53;7.87;;;19.70;1.00;;;;;;5006378;28;20247;-50
2021/08/15 07:27:56;;;;;;;12.93;8.03;;;19.70;1.00;;;;;;5007840;28;20282;-49
2021/08/15 07:30:24;;;;;;;16.07;9.97;;;20.00;1.00;;;;;;5007907;28;20752;-49
2021/08/15 07:33:00;;;;;;;16.10;7.90;;;20.00;1.00;;;;;;5008105;28;20778;-49
2021/08/15 07:35:29;;;;;;;13.07;8.17;;;20.20;1.00;;;;;;5007052;28;20305;-49
2021/08/15 07:37:56;;;;;;;13.30;7.90;;;20.00;99.90;;;;;;5007916;28;20212;-49
2021/08/15 07:40:23;;;;;;;10.87;7.70;;;19.90;1.00;;;;;;5007122;28;20299;-49
2021/08/15 07:42:51;;;;;;;15.23;8.03;;;19.90;1.00;;;;;;5007266;28;20241;-49
2021/08/15 07:45:20;;;;;;;8.93;6.43;;;19.90;1.00;;;;;;5006981;28;20237;-49
2021/08/15 07:47:47;;;;;;;13.80;6.97;;;19.90;99.90;;;;;;5007707;28;20575;-49
2021/08/15 07:50:15;;;;;;;12.30;7.77;;;20.00;1.00;;;;;;5006703;28;20241;-49
2021/08/15 07:52:41;;;;;;;11.80;7.03;;;19.90;1.00;;;;;;5007587;28;20669;-49
2021/08/15 07:55:09;;;;;;;12.27;7.50;;;19.80;1.00;;;;;;5007228;28;20347;-49
2021/08/15 07:57:36;;;;;;;13.70;7.37;;;19.70;1.00;;;;;;5007573;28;20232;-49
2021/08/15 08:00:05;;;;;;;12.10;7.33;;;19.70;1.00;;;;;;5007806;28;20229;-48
2021/08/15 08:02:31;;;;;;;11.43;6.70;;;19.80;1.00;;;;;;5007050;28;20245;-49
2021/08/15 08:04:58;;;;;;;10.67;6.93;;;19.90;1.00;;;;;;5006657;28;20676;-49
2021/08/15 08:07:25;;;;;;;12.40;7.13;;;20.20;1.00;;;;;;5007237;28;20209;-49
2021/08/15 08:09:53;;;;;;;8.17;5.40;;;20.30;99.90;;;;;;5006897;28;20727;-49
2021/08/15 08:12:21;;;;;;;11.20;5.77;;;20.30;44.10;;;;;;5006644;28;20323;-49
2021/08/15 08:14:48;;;;;;;11.83;5.87;;;20.50;99.90;;;;;;5007342;28;20633;-49
2021/08/15 08:17:16;;;;;;;11.47;4.73;;;20.70;1.00;;;;;;5007205;28;20229;-49
2021/08/15 08:19:43;;;;;;;9.67;4.40;;;20.80;1.00;;;;;;5006808;28;20283;-49
2021/08/15 08:22:11;;;;;;;7.90;4.83;;;20.70;99.90;;;;;;5006562;28;20300;-48
2021/08/15 08:24:38;;;;;;;11.23;4.90;;;20.90;1.00;;;;;;5006897;28;20281;-48
2021/08/15 08:27:05;;;;;;;9.77;4.80;;;21.20;99.90;;;;;;5005705;28;20712;-49
2021/08/15 08:29:31;;;;;;;10.07;5.70;;;21.40;1.00;;;;;;5006977;28;20233;-49
2021/08/15 08:31:58;;;;;;;9.00;4.57;;;21.30;1.00;;;;;;5006780;28;20312;-49
2021/08/15 08:34:25;;;;;;;8.17;4.40;;;21.50;1.00;;;;;;5006330;28;20209;-49
2021/08/15 08:36:52;;;;;;;8.20;4.20;;;22.10;99.90;;;;;;5006002;28;20229;-49
2021/08/15 08:39:19;;;;;;;6.50;4.10;;;22.40;1.00;;;;;;5006585;28;20205;-49
2021/08/15 08:41:46;;;;;;;6.97;4.07;;;22.70;1.00;;;;;;5006338;28;20787;-49
2021/08/15 08:44:13;;;;;;;10.23;4.43;;;22.80;99.90;;;;;;5005803;28;20336;-49
2021/08/15 08:46:43;;;;;;;6.20;3.40;;;22.80;1.00;;;;;;5006802;28;20228;-49
2021/08/15 08:49:15;;;;;;;9.93;4.40;;;23.40;99.90;;;;;;5006035;28;20237;-49
2021/08/15 08:51:44;;;;;;;6.57;3.80;;;23.10;1.00;;;;;;5006501;28;20223;-49
2021/08/15 08:54:26;;;;;;;6.63;3.63;;;23.10;1.00;;;;;;5006678;28;20680;-49
2021/08/15 08:56:53;;;;;;;10.30;4.40;;;23.40;1.00;;;;;;5006264;28;20195;-49
2021/08/15 08:59:21;;;;;;;8.33;3.73;;;23.50;1.00;;;;;;5005675;28;20201;-49
2021/08/15 09:01:48;;;;;;;6.57;4.00;;;23.50;1.00;;;;;;5006508;28;20203;-50
2021/08/15 09:04:16;;;;;;;5.53;3.33;;;23.60;99.90;;;;;;5006375;28;20241;-49
2021/08/15 09:06:43;;;;;;;7.10;2.63;;;24.00;1.00;;;;;;5006884;28;20236;-49
2021/08/15 09:09:18;;;;;;;7.27;3.33;;;24.10;1.00;;;;;;5006790;28;20240;-49
2021/08/15 09:11:50;;;;;;;4.93;2.53;;;24.00;1.00;;;;;;5006650;28;20225;-49
2021/08/15 09:14:24;;;;;;;6.73;3.33;;;24.00;99.90;;;;;;5006101;28;20293;-50
2021/08/15 09:17:03;;;;;;;4.57;2.40;;;23.80;1.00;;;;;;5006473;28;20271;-49
2021/08/15 09:19:40;;;;;;;4.63;2.00;;;23.90;99.90;;;;;;5006561;28;20588;-49
2021/08/15 09:22:14;;;;;;;3.50;2.43;;;23.80;99.90;;;;;;5007264;28;20633;-49
2021/08/15 09:25:11;;;;;;;5.27;2.30;;;24.10;1.00;;;;;;5006181;28;20651;-49
2021/08/15 09:27:51;;;;;;;4.07;1.97;;;23.70;1.00;;;;;;5005744;28;20613;-49
2021/08/15 09:30:33;;;;;;;3.20;1.80;;;23.70;99.90;;;;;;5005802;28;20259;-49
2021/08/15 09:33:08;;;;;;;2.77;1.77;;;23.80;59.00;;;;;;5006496;28;20644;-49
2021/08/15 09:35:35;;;;;;;4.07;1.90;;;23.70;1.00;;;;;;5005944;28;20225;-48
2021/08/15 09:38:09;;;;;;;3.33;2.00;;;24.10;99.90;;;;;;5006543;28;20664;-49
2021/08/15 09:40:40;;;;;;;5.07;1.77;;;24.20;28.20;;;;;;5004509;28;20292;-49
2021/08/15 09:43:17;;;;;;;4.20;1.67;;;23.70;1.00;;;;;;5005350;28;20238;-49
2021/08/15 09:45:52;;;;;;;4.33;1.70;;;23.70;1.00;;;;;;5005893;28;20279;-49
2021/08/15 09:48:27;;;;;;;2.70;1.80;;;23.80;1.00;;;;;;5007335;28;20356;-49
2021/08/15 09:51:06;;;;;;;3.30;1.70;;;23.70;1.00;;;;;;5009704;28;20370;-49
2021/08/15 09:53:39;;;;;;;3.73;1.73;;;24.10;1.00;;;;;;5009340;28;20214;-49
2021/08/15 09:56:07;;;;;;;3.40;1.50;;;24.30;1.00;;;;;;5009199;28;20197;-49
2021/08/15 09:58:34;;;;;;;2.67;1.73;;;24.20;1.00;;;;;;5009248;28;20679;-49
2021/08/15 10:01:04;;;;;;;3.73;1.70;;;24.30;99.90;;;;;;5009718;28;20563;-49
2021/08/15 10:03:32;;;;;;;4.13;1.40;;;24.20;59.10;;;;;;5009316;28;20308;-49
2021/08/15 10:06:00;;;;;;;5.10;2.00;;;24.30;1.00;;;;;;5008444;28;20240;-49
2021/08/15 10:08:28;;;;;;;2.93;1.53;;;24.20;1.00;;;;;;5009367;28;20239;-49
2021/08/15 10:10:55;;;;;;;4.57;1.90;;;24.30;1.00;;;;;;5008835;28;20205;-49
2021/08/15 10:13:23;;;;;;;6.50;1.80;;;24.50;1.00;;;;;;5009678;28;20211;-49
2021/08/15 10:16:02;;;;;;;3.27;1.47;;;24.40;99.90;;;;;;5008695;28;20765;-49
2021/08/15 10:18:31;;;;;;;2.23;1.50;;;24.40;99.90;;;;;;5024040;28;20291;-49
2021/08/15 10:21:14;;;;;;;1.70;1.30;;;24.30;99.90;;;;;;5007343;28;20209;-49
2021/08/15 10:23:42;;;;;;;1.73;1.20;;;24.40;99.90;;;;;;5008795;28;20565;-49
2021/08/15 10:26:37;;;;;;;1.47;1.10;;;24.20;44.90;;;;;;5009448;28;20532;-49
2021/08/15 10:29:04;;;;;;;3.10;1.40;;;24.40;99.90;;;;;;5008962;28;20230;-49
2021/08/15 10:32:05;;;;;;;3.17;1.47;;;24.40;1.00;;;;;;5008769;28;20318;-50
2021/08/15 10:35:10;;;;;;;2.60;1.50;;;24.70;1.00;;;;;;5007944;28;20204;-49
2021/08/15 10:37:37;;;;;;;3.23;1.40;;;24.70;1.00;;;;;;5009394;28;20287;-49
2021/08/15 10:40:04;;;;;;;2.20;1.43;;;24.70;1.00;;;;;;5008378;28;20293;-49
2021/08/15 10:42:43;;;;;;;2.67;1.37;;;25.00;1.00;;;;;;5008983;28;20549;-49
2021/08/15 10:45:24;;;;;;;2.63;1.23;;;25.00;1.00;;;;;;5007715;28;20616;-48
2021/08/15 10:48:14;;;;;;;1.80;1.23;;;24.60;1.00;;;;;;5008535;28;20580;-49
2021/08/15 10:50:53;;;;;;;2.73;1.20;;;25.10;1.00;;;;;;5004466;28;20406;-49
2021/08/15 10:53:29;;;;;;;2.30;1.00;;;25.20;1.00;;;;;;5008748;28;20202;-49
2021/08/15 10:56:05;;;;;;;2.17;1.20;;;25.30;99.90;;;;;;5008540;28;20239;-49
2021/08/15 10:58:47;;;;;;;1.97;1.20;;;25.20;99.90;;;;;;5007966;28;20219;-49
2021/08/15 11:01:16;;;;;;;1.47;1.00;;;24.90;99.90;;;;;;5008341;28;20240;-49
2021/08/15 11:03:49;;;;;;;4.57;1.53;;;25.00;99.90;;;;;;5008167;28;20210;-49
2021/08/15 11:06:39;;;;;;;3.80;1.07;;;25.10;1.00;;;;;;5008095;28;20212;-49
2021/08/15 11:09:07;;;;;;;1.40;1.00;;;25.30;1.00;;;;;;5007548;28;20240;-49
2021/08/15 11:11:56;;;;;;;2.07;1.30;;;25.20;1.00;;;;;;5008016;28;20270;-49
2021/08/15 11:14:25;;;;;;;2.40;1.50;;;25.20;1.00;;;;;;5007874;28;20635;-49
2021/08/15 11:16:53;;;;;;;6.13;1.60;;;25.50;1.00;;;;;;5007233;28;20243;-49
2021/08/15 11:19:20;;;;;;;1.70;1.17;;;25.60;1.00;;;;;;5007531;28;20205;-49
2021/08/15 11:22:10;;;;;;;3.20;1.50;;;25.70;99.90;;;;;;5007689;28;20216;-49
2021/08/15 11:24:43;;;;;;;3.47;1.30;;;25.90;1.00;;;;;;5014440;28;20206;-49
2021/08/15 11:27:29;;;;;;;2.10;1.27;;;25.70;1.00;;;;;;5007926;28;20305;-49
2021/08/15 11:29:57;;;;;;;4.10;1.70;;;25.90;99.90;;;;;;5006888;28;20229;-49
2021/08/15 11:32:27;;;;;;;2.80;1.50;;;25.80;1.00;;;;;;5007564;28;20575;-49
2021/08/15 11:34:56;;;;;;;3.43;1.57;;;25.70;1.00;;;;;;5007143;28;20678;-49
2021/08/15 11:37:50;;;;;;;2.70;1.53;;;26.00;1.00;;;;;;5007861;28;20242;-49
2021/08/15 11:40:23;;;;;;;3.50;1.80;;;26.20;99.90;;;;;;5006542;28;20210;-50
2021/08/15 11:43:13;;;;;;;3.07;1.47;;;26.50;99.90;;;;;;5006939;28;20288;-49
2021/08/15 11:45:44;;;;;;;2.37;1.50;;;26.40;26.80;;;;;;5006614;28;20325;-50
2021/08/15 11:48:14;;;;;;;3.27;1.60;;;26.70;1.00;;;;;;5007756;28;20215;-50
2021/08/15 11:50:46;;;;;;;2.47;1.50;;;26.80;99.90;;;;;;5007363;28;20316;-50
2021/08/15 11:53:18;;;;;;;2.83;1.60;;;26.60;68.20;;;;;;5007267;28;20706;-48
2021/08/15 11:55:45;;;;;;;4.53;1.93;;;26.00;99.90;;;;;;5006980;28;20229;-47
2021/08/15 11:58:12;;;;;;;4.47;1.70;;;25.80;1.00;;;;;;5007357;28;20305;-50
2021/08/15 12:00:39;;;;;;;4.97;2.30;;;26.20;1.00;;;;;;5007468;28;20833;-49
2021/08/15 12:03:12;;;;;;;4.27;1.80;;;26.20;99.90;;;;;;5007523;28;20295;-48
2021/08/15 12:05:49;;;;;;;2.50;1.50;;;26.00;99.90;;;;;;5006135;28;20222;-48
2021/08/15 12:08:20;;;;;;;3.33;2.03;;;25.80;99.90;;;;;;5006659;28;20612;-49
2021/08/15 12:10:52;;;;;;;2.57;1.80;;;26.10;99.90;;;;;;5006369;28;20526;-49
2021/08/15 12:13:39;;;;;;;5.13;1.70;;;26.00;99.90;;;;;;5007037;28;20866;-49
2021/08/15 12:16:09;;;;;;;3.13;1.80;;;25.70;1.00;;;;;;5007271;28;20315;-49
2021/08/15 12:18:40;;;;;;;2.27;1.73;;;25.60;1.00;;;;;;5006456;28;20200;-49
2021/08/15 12:21:39;;;;;;;5.40;1.90;;;25.90;1.00;;;;;;5006493;28;20244;-49
2021/08/15 12:24:09;;;;;;;4.63;1.90;;;26.20;99.90;;;;;;5006777;28;20309;-49
2021/08/15 12:27:06;;;;;;;4.17;2.10;;;26.00;99.90;;;;;;5006596;28;20226;-49
2021/08/15 12:29:39;;;;;;;2.10;1.37;;;26.20;99.90;;;;;;5006212;28;20211;-49
2021/08/15 12:32:15;;;;;;;3.67;1.97;;;26.40;1.00;;;;;;5006163;28;20732;-49
2021/08/15 12:34:44;;;;;;;2.97;1.73;;;26.30;11.10;;;;;;5005833;28;20207;-49
2021/08/15 12:37:24;;;;;;;2.60;1.63;;;26.40;54.20;;;;;;5006453;28;20273;-47
2021/08/15 12:40:07;;;;;;;2.27;1.37;;;26.40;93.60;;;;;;5005948;28;20208;-48
2021/08/15 12:42:36;;;;;;;1.93;1.33;;;26.20;99.90;;;;;;5006190;28;20282;-48
2021/08/15 12:45:08;;;;;;;4.43;1.57;;;26.50;99.90;;;;;;5005235;28;20283;-48
2021/08/15 12:47:36;;;;;;;2.17;1.00;;;26.40;99.90;;;;;;5006878;28;20224;-48
2021/08/15 12:50:23;;;;;;;1.37;1.00;;;26.30;99.90;;;;;;5004228;28;20257;-50
2021/08/15 12:52:53;;;;;;;2.60;1.50;;;26.50;99.90;;;;;;5006235;28;20506;-49
2021/08/15 12:55:31;;;;;;;2.97;1.40;;;26.50;99.90;;;;;;5006207;28;20549;-49
2021/08/15 12:57:58;;;;;;;1.33;0.97;;;26.30;99.90;;;;;;5006322;28;20257;-49
2021/08/15 13:00:47;;;;;;;2.50;1.30;;;26.20;99.90;;;;;;5006121;28;20216;-49